createdAt,value
2024-02-19T00:00:53.560Z,99.77
2024-02-19T00:03:20.573Z,100.00
2024-02-19T00:05:47.308Z,99.70
2024-02-19T00:08:14.317Z,99.65
2024-02-19T00:10:41.201Z,100.00
2024-02-19T00:13:07.989Z,99.93
2024-02-19T00:15:34.862Z,99.92
2024-02-19T00:18:02.406Z,100.00
2024-02-19T00:20:29.316Z,100.00
2024-02-19T00:22:56.160Z,100.00
2024-02-19T00:25:22.831Z,100.00
2024-02-19T00:27:49.832Z,100.00
2024-02-19T00:30:16.602Z,100.00
2024-02-19T00:32:43.290Z,100.00
2024-02-19T00:35:10.100Z,100.00
2024-02-19T00:37:36.832Z,100.00
2024-02-19T00:40:04.244Z,100.00
2024-02-19T00:42:30.934Z,100.00
2024-02-19T00:44:57.585Z,100.00
2024-02-19T00:47:24.592Z,100.00
2024-02-19T00:49:51.322Z,100.00
2024-02-19T00:52:18.286Z,100.00
2024-02-19T00:54:45.436Z,100.00
2024-02-19T00:57:12.535Z,100.00
2024-02-19T00:59:39.279Z,100.00
2024-02-19T01:02:06.275Z,100.00
2024-02-19T01:04:33.336Z,100.00
2024-02-19T01:07:00.398Z,100.00
2024-02-19T01:09:27.167Z,100.00
2024-02-19T01:11:53.914Z,100.00
2024-02-19T01:14:20.550Z,100.00
2024-02-19T01:16:47.203Z,100.00
2024-02-19T01:19:14.221Z,100.00
2024-02-19T01:21:41.107Z,100.00
2024-02-19T01:24:07.939Z,100.00
2024-02-19T01:26:34.695Z,100.00
2024-02-19T01:29:01.534Z,100.00
2024-02-19T01:31:28.497Z,100.00
2024-02-19T01:33:55.578Z,100.00
2024-02-19T01:36:22.524Z,100.00
2024-02-19T01:38:49.249Z,100.00
2024-02-19T01:41:16.505Z,100.00
2024-02-19T01:43:43.235Z,100.00
2024-02-19T01:46:10.823Z,100.00
2024-02-19T01:48:38.200Z,100.00
2024-02-19T01:51:05.144Z,100.00
2024-02-19T01:53:31.956Z,100.00
2024-02-19T01:55:59.737Z,100.00
2024-02-19T01:58:27.323Z,100.00
2024-02-19T02:00:55.007Z,100.00
2024-02-19T02:03:24.109Z,100.00
2024-02-19T02:05:50.944Z,100.00
2024-02-19T02:08:18.213Z,100.00
2024-02-19T02:10:45.010Z,100.00
2024-02-19T02:13:11.873Z,100.00
2024-02-19T02:15:38.723Z,100.00
2024-02-19T02:18:06.063Z,100.00
2024-02-19T02:20:33.534Z,100.00
2024-02-19T02:23:00.470Z,100.00
2024-02-19T02:25:27.251Z,100.00
2024-02-19T02:27:54.259Z,100.00
2024-02-19T02:30:21.137Z,100.00
2024-02-19T02:32:48.358Z,100.00
2024-02-19T02:35:15.133Z,100.00
2024-02-19T02:37:41.781Z,100.00
2024-02-19T02:40:09.176Z,100.00
2024-02-19T02:42:36.002Z,100.00
2024-02-19T02:45:02.858Z,100.00
2024-02-19T02:47:29.566Z,100.00
2024-02-19T02:49:56.392Z,100.00
2024-02-19T02:52:23.682Z,100.00
2024-02-19T02:54:50.497Z,100.00
2024-02-19T02:57:17.273Z,100.00
2024-02-19T02:59:44.181Z,100.00
2024-02-19T03:02:11.489Z,100.00
2024-02-19T03:04:38.584Z,100.00
2024-02-19T03:07:05.823Z,100.00
2024-02-19T03:09:32.846Z,100.00
2024-02-19T03:11:59.624Z,100.00
2024-02-19T03:14:26.363Z,100.00
2024-02-19T03:16:53.177Z,100.00
2024-02-19T03:19:20.025Z,100.00
2024-02-19T03:21:46.988Z,100.00
2024-02-19T03:24:14.257Z,100.00
2024-02-19T03:26:41.902Z,100.00
2024-02-19T03:29:14.885Z,100.00
2024-02-19T03:31:43.435Z,100.00
2024-02-19T03:34:10.746Z,100.00
2024-02-19T03:36:38.205Z,100.00
2024-02-19T03:39:05.880Z,100.00
2024-02-19T03:41:33.278Z,100.00
2024-02-19T03:44:00.887Z,100.00
2024-02-19T03:46:27.743Z,100.00
2024-02-19T03:48:57.905Z,100.00
2024-02-19T03:51:24.868Z,100.00
2024-02-19T03:53:51.875Z,100.00
2024-02-19T03:56:19.323Z,100.00
2024-02-19T03:58:46.878Z,100.00
2024-02-19T04:01:14.812Z,100.00
2024-02-19T04:03:41.804Z,100.00
2024-02-19T04:06:09.004Z,100.00
2024-02-19T04:08:35.808Z,100.00
2024-02-19T04:11:03.049Z,100.00
2024-02-19T04:13:29.759Z,100.00
2024-02-19T04:15:56.748Z,100.00
2024-02-19T04:18:24.152Z,100.00
2024-02-19T04:20:51.199Z,100.00
2024-02-19T04:23:18.018Z,100.00
2024-02-19T04:25:44.797Z,100.00
2024-02-19T04:28:11.871Z,100.00
2024-02-19T04:30:38.935Z,100.00
2024-02-19T04:33:06.174Z,100.00
2024-02-19T04:35:33.277Z,100.00
2024-02-19T04:38:00.141Z,100.00
2024-02-19T04:40:27.064Z,100.00
2024-02-19T04:42:53.998Z,100.00
2024-02-19T04:45:21.299Z,100.00
2024-02-19T04:47:48.072Z,100.00
2024-02-19T04:50:15.555Z,100.00
2024-02-19T04:52:42.360Z,100.00
2024-02-19T04:55:09.719Z,100.00
2024-02-19T04:57:36.543Z,100.00
2024-02-19T05:00:03.496Z,100.00
2024-02-19T05:02:30.240Z,100.00
2024-02-19T05:04:57.146Z,100.00
2024-02-19T05:07:24.010Z,100.00
2024-02-19T05:09:51.312Z,100.00
2024-02-19T05:12:18.135Z,100.00
2024-02-19T05:14:44.897Z,100.00
2024-02-19T05:17:11.727Z,100.00
2024-02-19T05:19:38.506Z,100.00
2024-02-19T05:22:05.316Z,100.00
2024-02-19T05:24:32.472Z,100.00
2024-02-19T05:26:59.219Z,100.00
2024-02-19T05:29:26.076Z,100.00
2024-02-19T05:31:52.953Z,100.00
2024-02-19T05:34:19.946Z,100.00
2024-02-19T05:36:47.165Z,100.00
2024-02-19T05:39:13.973Z,100.00
2024-02-19T05:41:41.155Z,100.00
2024-02-19T05:44:07.884Z,100.00
2024-02-19T05:46:34.645Z,100.00
2024-02-19T05:49:02.242Z,100.00
2024-02-19T05:51:29.238Z,100.00
2024-02-19T05:53:56.564Z,100.00
2024-02-19T05:56:23.747Z,100.00
2024-02-19T05:58:50.497Z,100.00
2024-02-19T06:01:18.529Z,100.00
2024-02-19T06:03:45.683Z,100.00
2024-02-19T06:06:12.875Z,100.00
2024-02-19T06:08:39.849Z,100.00
2024-02-19T06:11:06.840Z,100.00
2024-02-19T06:13:34.026Z,100.00
2024-02-19T06:16:00.865Z,100.00
2024-02-19T06:18:27.732Z,100.00
2024-02-19T06:20:54.576Z,100.00
2024-02-19T06:23:21.322Z,100.00
2024-02-19T06:25:48.205Z,100.00
2024-02-19T06:28:14.943Z,100.00
2024-02-19T06:30:42.022Z,100.00
2024-02-19T06:33:09.124Z,100.00
2024-02-19T06:35:36.184Z,100.00
2024-02-19T06:38:03.344Z,100.00
2024-02-19T06:40:30.147Z,100.00
2024-02-19T06:42:57.136Z,100.00
2024-02-19T06:45:24.085Z,100.00
2024-02-19T06:47:51.735Z,100.00
2024-02-19T06:50:18.624Z,100.00
2024-02-19T06:52:46.065Z,100.00
2024-02-19T06:55:17.978Z,100.00
2024-02-19T06:57:45.515Z,100.00
2024-02-19T07:00:13.655Z,100.00
2024-02-19T07:02:41.041Z,100.00
2024-02-19T07:05:09.296Z,100.00
2024-02-19T07:07:37.044Z,100.00
2024-02-19T07:10:04.256Z,100.00
2024-02-19T07:12:31.600Z,100.00
2024-02-19T07:14:58.328Z,100.00
2024-02-19T07:17:25.624Z,100.00
2024-02-19T07:19:52.360Z,100.00
2024-02-19T07:22:19.178Z,100.00
2024-02-19T07:24:46.041Z,100.00
2024-02-19T07:27:12.878Z,100.00
2024-02-19T07:29:39.707Z,100.00
2024-02-19T07:32:06.970Z,100.00
2024-02-19T07:34:33.831Z,100.00
2024-02-19T07:37:00.587Z,100.00
2024-02-19T07:39:27.440Z,100.00
2024-02-19T07:41:54.264Z,100.00
2024-02-19T07:44:21.005Z,100.00
2024-02-19T07:46:48.090Z,100.00
2024-02-19T07:49:15.023Z,100.00
2024-02-19T07:51:42.241Z,100.00
2024-02-19T07:54:09.295Z,100.00
2024-02-19T07:56:36.142Z,100.00
2024-02-19T07:59:02.856Z,100.00
2024-02-19T08:01:29.544Z,100.00
2024-02-19T08:03:56.479Z,100.00
2024-02-19T08:06:23.314Z,100.00
2024-02-19T08:08:50.193Z,100.00
2024-02-19T08:11:16.943Z,100.00
2024-02-19T08:13:43.911Z,100.00
2024-02-19T08:16:11.880Z,100.00
2024-02-19T08:18:38.999Z,100.00
2024-02-19T08:21:06.320Z,100.00
2024-02-19T08:23:33.143Z,100.00
2024-02-19T08:25:59.867Z,100.00
2024-02-19T08:28:26.762Z,100.00
2024-02-19T08:30:53.538Z,100.00
2024-02-19T08:33:20.118Z,100.00
2024-02-19T08:35:46.830Z,100.00
2024-02-19T08:38:13.562Z,100.00
2024-02-19T08:40:40.388Z,100.00
2024-02-19T08:43:07.236Z,100.00
2024-02-19T08:45:37.008Z,100.00
2024-02-19T08:48:05.561Z,100.00
2024-02-19T08:50:32.556Z,100.00
2024-02-19T08:52:59.199Z,100.00
2024-02-19T08:55:26.088Z,100.00
2024-02-19T08:57:52.853Z,100.00
2024-02-19T09:00:19.740Z,100.00
2024-02-19T09:02:46.373Z,100.00
2024-02-19T09:05:13.436Z,100.00
2024-02-19T09:07:40.248Z,100.00
2024-02-19T09:10:08.154Z,100.00
2024-02-19T09:12:35.616Z,100.00
2024-02-19T09:15:02.467Z,100.00
2024-02-19T09:17:29.332Z,100.00
2024-02-19T09:19:56.113Z,100.00
2024-02-19T09:22:23.092Z,100.00
2024-02-19T09:24:50.205Z,100.00
2024-02-19T09:27:17.223Z,100.00
2024-02-19T09:29:43.968Z,100.00
2024-02-19T09:32:10.707Z,100.00
2024-02-19T09:34:37.566Z,100.00
2024-02-19T09:37:04.776Z,100.00
2024-02-19T09:39:31.571Z,100.00
2024-02-19T09:41:58.182Z,100.00
2024-02-19T09:44:25.159Z,100.00
2024-02-19T09:46:57.754Z,100.00
2024-02-19T09:49:26.524Z,100.00
2024-02-19T09:51:58.053Z,100.00
2024-02-19T09:54:24.935Z,100.00
2024-02-19T09:56:52.028Z,100.00
2024-02-19T09:59:18.743Z,100.00
2024-02-19T10:01:45.593Z,100.00
2024-02-19T10:04:13.031Z,100.00
2024-02-19T10:06:43.111Z,100.00
2024-02-19T10:09:11.146Z,100.00
2024-02-19T10:11:38.401Z,100.00
2024-02-19T10:14:05.780Z,100.00
2024-02-19T10:16:32.941Z,100.00
2024-02-19T10:19:06.484Z,100.00
2024-02-19T10:21:34.185Z,100.00
2024-02-19T10:24:01.305Z,100.00
2024-02-19T10:26:28.262Z,100.00
2024-02-19T10:28:56.275Z,100.00
2024-02-19T10:31:23.397Z,100.00
2024-02-19T10:33:50.869Z,100.00
2024-02-19T10:36:19.062Z,100.00
2024-02-19T10:38:45.817Z,100.00
2024-02-19T10:41:13.691Z,100.00
2024-02-19T10:43:40.694Z,100.00
2024-02-19T10:46:07.521Z,100.00
2024-02-19T10:48:34.615Z,100.00
2024-02-19T10:51:05.170Z,100.00
2024-02-19T10:53:32.222Z,100.00
2024-02-19T10:56:36.118Z,100.00
2024-02-19T10:59:03.114Z,100.00
2024-02-19T11:01:46.017Z,100.00
2024-02-19T11:04:16.113Z,100.00
2024-02-19T11:06:54.081Z,100.00
2024-02-19T11:09:29.238Z,100.00
2024-02-19T11:11:59.426Z,100.00
2024-02-19T11:14:35.915Z,100.00
2024-02-19T11:17:04.511Z,100.00
2024-02-19T11:19:38.930Z,100.00
2024-02-19T11:22:11.610Z,100.00
2024-02-19T11:24:40.999Z,100.00
2024-02-19T11:27:08.463Z,100.00
2024-02-19T11:29:43.516Z,100.00
2024-02-19T11:32:15.156Z,100.00
2024-02-19T11:34:41.917Z,100.00
2024-02-19T11:37:11.438Z,100.00
2024-02-19T11:39:38.254Z,100.00
2024-02-19T11:42:05.114Z,100.00
2024-02-19T11:44:33.300Z,100.00
2024-02-19T11:47:00.570Z,100.00
2024-02-19T11:49:27.893Z,100.00
2024-02-19T11:52:04.311Z,100.00
2024-02-19T11:54:35.068Z,100.00
2024-02-19T11:57:02.939Z,100.00
2024-02-19T11:59:31.372Z,100.00
2024-02-19T12:01:58.229Z,100.00
2024-02-19T12:04:27.858Z,100.00
2024-02-19T12:06:55.032Z,100.00
2024-02-19T12:09:22.231Z,100.00
2024-02-19T12:11:48.901Z,100.00
2024-02-19T12:14:15.839Z,100.00
2024-02-19T12:16:42.563Z,100.00
2024-02-19T12:19:09.623Z,100.00
2024-02-19T12:21:36.481Z,100.00
2024-02-19T12:24:03.413Z,100.00
2024-02-19T12:26:31.189Z,100.00
2024-02-19T12:28:59.503Z,100.00
2024-02-19T12:31:26.818Z,100.00
2024-02-19T12:33:55.266Z,100.00
2024-02-19T12:36:22.408Z,100.00
2024-02-19T12:38:49.528Z,100.00
2024-02-19T12:41:17.531Z,100.00
2024-02-19T12:43:45.963Z,100.00
2024-02-19T12:46:14.717Z,100.00
2024-02-19T12:48:42.691Z,100.00
2024-02-19T12:51:10.608Z,100.00
2024-02-19T12:53:37.682Z,100.00
2024-02-19T12:56:05.145Z,100.00
2024-02-19T12:58:32.331Z,100.00
2024-02-19T13:01:00.001Z,100.00
2024-02-19T13:03:28.855Z,100.00
2024-02-19T13:05:55.729Z,100.00
2024-02-19T13:08:22.559Z,100.00
2024-02-19T13:10:49.322Z,100.00
2024-02-19T13:13:16.074Z,100.00
2024-02-19T13:15:45.219Z,100.00
2024-02-19T13:18:12.872Z,100.00
2024-02-19T13:20:41.208Z,100.00
2024-02-19T13:23:08.045Z,100.00
2024-02-19T13:25:34.829Z,100.00
2024-02-19T13:28:02.004Z,100.00
2024-02-19T13:30:28.905Z,100.00
2024-02-19T13:32:55.700Z,100.00
2024-02-19T13:35:22.611Z,100.00
2024-02-19T13:37:49.718Z,100.00
2024-02-19T13:40:16.582Z,100.00
2024-02-19T13:42:43.512Z,100.00
2024-02-19T13:45:10.846Z,100.00
2024-02-19T13:47:41.953Z,100.00
2024-02-19T13:50:09.841Z,99.95
2024-02-19T13:52:36.621Z,99.89
2024-02-19T13:55:03.499Z,99.91
2024-02-19T13:57:30.789Z,98.92
2024-02-19T13:59:57.826Z,98.82
2024-02-19T14:02:24.746Z,99.29
2024-02-19T14:04:51.562Z,98.54
2024-02-19T14:07:18.728Z,98.31
2024-02-19T14:09:45.452Z,98.83
2024-02-19T14:12:12.386Z,98.90
2024-02-19T14:14:39.124Z,98.88
2024-02-19T14:17:06.276Z,96.84
2024-02-19T14:19:36.908Z,96.60
2024-02-19T14:22:03.793Z,95.07
2024-02-19T14:24:30.731Z,94.83
2024-02-19T14:26:57.446Z,94.85
2024-02-19T14:29:24.208Z,95.00
2024-02-19T14:31:50.845Z,95.56
2024-02-19T14:34:17.690Z,95.59
2024-02-19T14:36:44.830Z,95.87
2024-02-19T14:39:11.691Z,95.01
2024-02-19T14:41:38.433Z,93.93
2024-02-19T14:44:05.279Z,93.81
2024-02-19T14:46:32.324Z,93.17
2024-02-19T14:48:59.396Z,93.17
2024-02-19T14:51:26.404Z,92.81
2024-02-19T14:53:53.489Z,93.52
2024-02-19T14:56:20.243Z,93.59
2024-02-19T14:58:47.212Z,92.66
2024-02-19T15:01:14.228Z,92.71
2024-02-19T15:03:41.023Z,92.73
2024-02-19T15:06:08.009Z,92.76
2024-02-19T15:08:34.877Z,92.61
2024-02-19T15:11:01.653Z,92.90
2024-02-19T15:13:28.707Z,93.05
2024-02-19T15:15:55.901Z,91.65
2024-02-19T15:18:23.011Z,92.18
2024-02-19T15:20:49.824Z,92.39
2024-02-19T15:23:16.675Z,93.13
2024-02-19T15:25:43.638Z,93.02
2024-02-19T15:28:10.441Z,92.80
2024-02-19T15:30:37.417Z,92.73
2024-02-19T15:33:04.250Z,92.97
2024-02-19T15:35:31.256Z,92.35
2024-02-19T15:37:58.081Z,91.50
2024-02-19T15:40:24.902Z,91.82
2024-02-19T15:42:51.846Z,92.26
2024-02-19T15:45:18.734Z,92.05
2024-02-19T15:47:45.513Z,91.55
2024-02-19T15:50:12.466Z,90.70
2024-02-19T15:52:39.507Z,91.00
2024-02-19T15:55:07.049Z,90.91
2024-02-19T15:57:34.193Z,90.93
2024-02-19T16:00:01.235Z,91.21
2024-02-19T16:02:28.192Z,91.16
2024-02-19T16:04:55.349Z,91.30
2024-02-19T16:07:25.139Z,91.09
2024-02-19T16:09:53.870Z,91.69
2024-02-19T16:12:20.468Z,91.57
2024-02-19T16:14:47.218Z,91.64
2024-02-19T16:17:13.893Z,92.07
2024-02-19T16:19:41.084Z,92.20
2024-02-19T16:22:08.366Z,92.39
2024-02-19T16:24:35.854Z,92.60
2024-02-19T16:27:03.449Z,92.57
2024-02-19T16:29:30.557Z,92.81
2024-02-19T16:31:57.673Z,92.68
2024-02-19T16:34:24.816Z,92.72
2024-02-19T16:36:51.726Z,92.39
2024-02-19T16:39:18.499Z,92.83
2024-02-19T16:41:45.077Z,92.70
2024-02-19T16:44:11.729Z,92.42
2024-02-19T16:46:38.654Z,92.58
2024-02-19T16:49:05.586Z,92.59
2024-02-19T16:51:32.381Z,92.59
2024-02-19T16:53:59.131Z,92.75
2024-02-19T16:56:25.880Z,92.85
2024-02-19T16:58:52.730Z,92.72
2024-02-19T17:01:19.614Z,93.14
2024-02-19T17:03:46.637Z,93.33
2024-02-19T17:06:13.542Z,92.46
2024-02-19T17:08:40.443Z,92.71
2024-02-19T17:11:07.220Z,93.07
2024-02-19T17:13:34.231Z,93.24
2024-02-19T17:16:01.030Z,93.29
2024-02-19T17:18:27.823Z,93.62
2024-02-19T17:20:54.899Z,93.63
2024-02-19T17:23:21.792Z,93.89
2024-02-19T17:25:48.944Z,93.57
2024-02-19T17:28:15.734Z,93.91
2024-02-19T17:30:42.798Z,94.34
2024-02-19T17:33:15.683Z,94.32
2024-02-19T17:35:45.568Z,94.33
2024-02-19T17:38:12.792Z,94.28
2024-02-19T17:40:39.749Z,94.23
2024-02-19T17:43:06.588Z,94.84
2024-02-19T17:45:33.574Z,95.11
2024-02-19T17:48:00.609Z,95.23
2024-02-19T17:50:27.666Z,95.00
2024-02-19T17:52:54.413Z,95.25
2024-02-19T17:55:21.378Z,95.54
2024-02-19T17:57:48.371Z,96.01
2024-02-19T18:00:15.605Z,96.53
2024-02-19T18:02:42.540Z,96.37
2024-02-19T18:05:09.393Z,96.31
2024-02-19T18:07:36.310Z,95.64
2024-02-19T18:10:04.273Z,96.08
2024-02-19T18:12:30.912Z,95.90
2024-02-19T18:14:57.616Z,95.98
2024-02-19T18:17:24.326Z,96.27
2024-02-19T18:19:51.247Z,96.52
2024-02-19T18:22:18.352Z,96.51
2024-02-19T18:24:45.180Z,96.70
2024-02-19T18:27:11.858Z,96.51
2024-02-19T18:29:38.602Z,96.47
2024-02-19T18:32:05.887Z,97.10
2024-02-19T18:34:32.923Z,97.07
2024-02-19T18:36:59.709Z,97.03
2024-02-19T18:39:27.593Z,97.14
2024-02-19T18:41:54.441Z,97.76
2024-02-19T18:44:21.674Z,98.16
2024-02-19T18:46:48.533Z,98.80
2024-02-19T18:49:15.748Z,99.72
2024-02-19T18:51:42.864Z,100.00
2024-02-19T18:54:09.599Z,100.00
2024-02-19T18:56:36.342Z,100.00
2024-02-19T18:59:03.087Z,100.00
2024-02-19T19:01:29.940Z,100.00
2024-02-19T19:03:56.957Z,100.00
2024-02-19T19:06:23.784Z,100.00
2024-02-19T19:08:50.695Z,100.00
2024-02-19T19:11:17.476Z,100.00
2024-02-19T19:13:44.198Z,100.00
2024-02-19T19:16:11.021Z,100.00
2024-02-19T19:18:37.848Z,100.00
2024-02-19T19:21:04.936Z,100.00
2024-02-19T19:23:31.687Z,100.00
2024-02-19T19:25:58.410Z,100.00
2024-02-19T19:28:25.111Z,100.00
2024-02-19T19:30:51.955Z,100.00
2024-02-19T19:33:19.355Z,100.00
2024-02-19T19:35:46.362Z,100.00
2024-02-19T19:38:13.206Z,100.00
2024-02-19T19:40:39.922Z,100.00
2024-02-19T19:43:07.034Z,100.00
2024-02-19T19:45:33.945Z,100.00
2024-02-19T19:48:00.709Z,100.00
2024-02-19T19:50:27.881Z,100.00
2024-02-19T19:52:54.520Z,100.00
2024-02-19T19:55:21.647Z,100.00
2024-02-19T19:57:48.706Z,100.00
2024-02-19T20:00:16.392Z,100.00
2024-02-19T20:02:44.796Z,100.00
2024-02-19T20:05:12.822Z,100.00
2024-02-19T20:07:39.985Z,100.00
2024-02-19T20:10:07.415Z,100.00
2024-02-19T20:12:34.938Z,100.00
2024-02-19T20:15:02.024Z,100.00
2024-02-19T20:17:28.883Z,100.00
2024-02-19T20:19:55.809Z,100.00
2024-02-19T20:22:22.586Z,100.00
2024-02-19T20:24:49.460Z,100.00
2024-02-19T20:27:16.278Z,100.00
2024-02-19T20:29:42.913Z,100.00
2024-02-19T20:32:09.858Z,100.00
2024-02-19T20:34:37.042Z,100.00
2024-02-19T20:37:04.096Z,99.97
2024-02-19T20:39:31.149Z,100.00
2024-02-19T20:41:57.855Z,100.00
2024-02-19T20:44:24.559Z,100.00
2024-02-19T20:46:51.409Z,99.99
2024-02-19T20:49:18.747Z,99.36
2024-02-19T20:51:45.634Z,98.62
2024-02-19T20:54:12.588Z,98.56
2024-02-19T20:56:39.851Z,97.80
2024-02-19T20:59:06.493Z,97.22
2024-02-19T21:01:33.399Z,97.68
2024-02-19T21:04:00.972Z,97.30
2024-02-19T21:06:28.044Z,97.68
2024-02-19T21:08:54.914Z,97.35
2024-02-19T21:11:22.651Z,97.63
2024-02-19T21:13:49.534Z,97.41
2024-02-19T21:16:16.211Z,97.25
2024-02-19T21:18:47.564Z,97.21
2024-02-19T21:21:22.250Z,97.05
2024-02-19T21:23:56.851Z,96.38
2024-02-19T21:26:23.637Z,96.46
2024-02-19T21:28:50.555Z,96.40
2024-02-19T21:31:17.542Z,96.32
2024-02-19T21:33:44.721Z,96.40
2024-02-19T21:36:11.677Z,96.02
2024-02-19T21:38:38.577Z,96.52
2024-02-19T21:41:05.533Z,96.98
2024-02-19T21:43:32.257Z,96.58
2024-02-19T21:45:59.106Z,96.58
2024-02-19T21:48:26.999Z,96.55
2024-02-19T21:50:54.015Z,96.54
2024-02-19T21:53:20.857Z,96.69
2024-02-19T21:55:47.504Z,96.52
2024-02-19T21:58:14.224Z,96.70
2024-02-19T22:00:41.053Z,96.77
2024-02-19T22:03:07.957Z,96.87
2024-02-19T22:05:35.077Z,97.03
2024-02-19T22:08:01.867Z,96.64
2024-02-19T22:10:28.654Z,96.75
2024-02-19T22:12:55.475Z,96.82
2024-02-19T22:15:22.518Z,97.14
2024-02-19T22:17:49.166Z,97.08
2024-02-19T22:20:16.119Z,97.35
2024-02-19T22:22:42.826Z,97.66
2024-02-19T22:25:09.963Z,97.55
2024-02-19T22:27:36.788Z,97.54
2024-02-19T22:30:03.617Z,97.62
2024-02-19T22:32:30.178Z,97.78
2024-02-19T22:34:57.180Z,97.81
2024-02-19T22:37:24.101Z,97.95
2024-02-19T22:39:50.989Z,97.81
2024-02-19T22:42:17.689Z,97.96
2024-02-19T22:44:44.331Z,97.89
2024-02-19T22:47:11.183Z,98.08
2024-02-19T22:49:38.247Z,99.45
2024-02-19T22:52:06.420Z,99.34
2024-02-19T22:54:33.173Z,99.65
2024-02-19T22:57:00.740Z,99.79
2024-02-19T22:59:27.401Z,99.99
2024-02-19T23:01:55.155Z,100.00
2024-02-19T23:04:22.077Z,100.00
2024-02-19T23:06:49.102Z,100.00
2024-02-19T23:09:15.926Z,100.00
2024-02-19T23:11:42.722Z,100.00
2024-02-19T23:14:09.399Z,100.00
2024-02-19T23:16:36.270Z,100.00
2024-02-19T23:19:03.016Z,100.00
2024-02-19T23:21:29.748Z,100.00
2024-02-19T23:23:56.356Z,100.00
2024-02-19T23:26:23.047Z,100.00
2024-02-19T23:28:49.903Z,100.00
2024-02-19T23:31:16.730Z,100.00
2024-02-19T23:33:43.825Z,100.00
2024-02-19T23:36:10.880Z,100.00
2024-02-19T23:38:37.747Z,100.00
2024-02-19T23:41:04.600Z,100.00
2024-02-19T23:43:31.562Z,100.00
2024-02-19T23:45:59.096Z,100.00
2024-02-19T23:48:26.478Z,100.00
2024-02-19T23:50:53.304Z,100.00
2024-02-19T23:53:21.088Z,100.00
2024-02-19T23:55:47.965Z,100.00
2024-02-19T23:58:14.795Z,100.00
